Data for 07/06/2013

Time Sea-Level Adjusted Pressure Absolute Pressure Temperature Relative Humidity Dew Point   
(mb) (inHg) (mb) (inHg) (C) (F) (%) (C) (F)
00:05 1016 30 845 24.95 13.7 56.7 77 9.9 49.7
00:10 1016 30 845 24.95 13.8 56.8 77 9.9 49.8
00:15 1016 30 845 24.95 13.7 56.7 78 10 50.1
00:20 1016 30 845 24.95 13.7 56.6 79 10.1 50.2
00:25 1016 30 845 24.95 13.7 56.7 78 10.1 50.1
00:30 1016 30 845 24.95 13.6 56.4 78 9.9 49.8
00:35 1015 29.97 844 24.92 13.4 56.1 77 9.5 49.1
00:40 1015 29.97 844 24.92 13.8 56.8 75 9.5 49.2
00:45 1015 29.97 845 24.95 14 57.1 76 9.7 49.5
00:50 1015 29.97 844 24.92 13.7 56.7 78 10.1 50.1
00:55 1015 29.97 844 24.92 13.3 55.9 80 10 50.1
01:00 1015 29.97 845 24.95 13 55.4 82 10 50
01:05 1015 29.97 845 24.95 12.9 55.2 82 9.8 49.7
01:10 1015 29.97 845 24.95 12.9 55.3 81 9.7 49.5
01:15 1015 29.97 845 24.95 12.9 55.3 81 9.7 49.5
01:20 1016 30 845 24.95 13 55.3 80 9.6 49.3
01:25 1016 30 845 24.95 13.3 56 78 9.7 49.4
01:30 1016 30 845 24.95 13.4 56.2 79 9.8 49.7
01:35 1016 30 845 24.95 13.5 56.2 78 9.6 49.4
01:40 1016 30 845 24.95 13.6 56.5 77 9.7 49.5
01:45 1016 30 845 24.95 13.6 56.5 78 9.8 49.7
01:50 1016 30 845 24.95 13.4 56 79 9.8 49.6
01:55 1016 30 845 24.95 13.1 55.6 80 9.7 49.4
02:00 1016 30 845 24.95 13.2 55.7 79 9.6 49.4
02:05 1016 30 845 24.95 13.3 55.9 79 9.6 49.4
02:10 1016 30 845 24.95 13.4 56.1 77 9.5 49.2
02:15 1016 30 845 24.95 13.6 56.4 76 9.5 49.1
02:20 1016 30 845 24.95 13.7 56.7 76 9.7 49.4
02:25 1016 30 845 24.95 13.6 56.5 76 9.6 49.2
02:30 1016 30 845 24.95 13.5 56.2 78 9.7 49.4
02:35 1016 30 845 24.95 13.3 55.9 78 9.6 49.3
02:40 1016 30 845 24.95 13.2 55.7 78 9.4 49
02:45 1016 30 845 24.95 13.3 55.9 77 9.3 48.8
02:50 1016 30 845 24.95 13.4 56 76 9.3 48.7
02:55 1016 30 845 24.95 13.4 56 76 9.3 48.8
03:00 1016 30 845 24.95 13.2 55.8 77 9.2 48.6
03:05 1016 30 845 24.95 13.1 55.5 77 9.1 48.5
03:10 1016 30 845 24.95 13.1 55.6 77 9.2 48.5
03:15 1016 30 845 24.95 13.1 55.5 77 9.2 48.6
03:20 1016 30 845 24.95 13.1 55.5 77 9.2 48.5
03:25 1016 30 845 24.95 13.2 55.7 76 9.2 48.5
03:30 1016 30 845 24.95 13.1 55.5 76 9 48.2
03:35 1016 30 845 24.95 12.9 55.3 76 8.9 48
03:40 1016 30 845 24.95 12.9 55.1 76 8.8 47.9
03:45 1016 30 846 24.98 12.9 55.2 75 8.6 47.6
03:50 1016 30 846 24.98 12.7 54.8 77 8.8 47.9
03:55 1016 30 846 24.98 12.4 54.4 77 8.6 47.5
04:00 1016 30 846 24.98 12.4 54.3 78 8.6 47.6
04:05 1017 30.03 846 24.98 12.3 54.1 79 8.7 47.7
04:10 1017 30.03 846 24.98 12 53.6 80 8.6 47.5
04:15 1017 30.03 846 24.98 11.8 53.3 80 8.6 47.4
04:20 1017 30.03 846 24.98 11.6 52.8 82 8.6 47.5
04:25 1017 30.03 846 24.98 11.5 52.6 81 8.4 47.1
04:30 1017 30.03 846 24.98 11.7 53.1 81 8.5 47.3
04:35 1017 30.03 846 24.98 11.8 53.2 78 8.1 46.7
04:40 1017 30.03 846 24.98 12.3 54.1 77 8.4 47.1
04:45 1017 30.03 846 24.98 12.3 54.1 79 8.7 47.7
04:50 1017 30.03 846 24.98 12.2 53.9 78 8.6 47.4
04:55 1017 30.03 846 24.98 12.2 53.9 78 8.4 47.2
05:00 1017 30.03 846 24.98 12.2 54 78 8.5 47.2
05:05 1017 30.03 846 24.98 12.1 53.7 78 8.4 47.2
05:10 1017 30.03 846 24.98 12 53.5 78 8.3 46.9
05:15 1017 30.03 846 24.98 12.3 54.1 75 8.1 46.5
05:20 1017 30.03 846 24.98 12.5 54.5 75 8.2 46.7
05:25 1017 30.03 846 24.98 12.5 54.5 75 8.2 46.7
05:30 1017 30.03 846 24.98 12.7 54.9 74 8.2 46.7
05:35 1017 30.03 846 24.98 12.8 55 74 8.2 46.8
05:40 1017 30.03 846 24.98 12.7 54.9 75 8.4 47.1
05:45 1017 30.03 847 25.01 12.7 54.9 74 8.3 47
05:50 1017 30.03 847 25.01 12.8 55 74 8.3 47
05:55 1017 30.03 847 25.01 12.9 55.2 74 8.4 47.2
06:00 1017 30.03 847 25.01 13.2 55.8 73 8.4 47.2
06:05 1017 30.03 847 25.01 13.6 56.4 71 8.5 47.3
06:10 1017 30.03 847 25.01 13.6 56.4 72 8.6 47.5
06:15 1017 30.03 847 25.01 13.5 56.3 70 8.3 46.9
06:20 1017 30.03 847 25.01 13.9 57.1 70 8.6 47.4
06:25 1017 30.03 847 25.01 14.3 57.7 70 8.8 47.9
06:30 1017 30.03 847 25.01 14.5 58 69 9 48.2
06:35 1018 30.06 847 25.01 14.9 58.7 67 8.9 48
06:40 1018 30.06 847 25.01 15.2 59.3 67 9.2 48.5
06:45 1018 30.06 847 25.01 15.9 60.5 64 9 48.3
06:50 1018 30.06 847 25.01 16.2 61.2 64 9.5 49
06:55 1018 30.06 847 25.01 16.7 62.1 63 9.6 49.4
07:00 1018 30.06 847 25.01 17.2 63 59 9.4 48.8
07:05 1018 30.06 847 25.01 17.4 63.3 60 9.6 49.3
07:10 1018 30.06 847 25.01 17.7 63.8 58 9.5 49.1
07:15 1018 30.06 847 25.01 17.6 63.7 60 9.7 49.5
07:20 1018 30.06 847 25.01 17.3 63.2 61 9.8 49.6
07:25 1018 30.06 847 25.01 17.3 63.1 62 10 49.9
07:30 1018 30.06 847 25.01 17.2 63 61 9.7 49.5
07:35 1018 30.06 847 25.01 17.3 63.1 63 10.2 50.3
07:40 1018 30.06 847 25.01 17.3 63.1 63 10.3 50.6
07:45 1018 30.06 847 25.01 17.3 63.2 62 9.9 49.9
07:50 1018 30.06 847 25.01 17.6 63.6 58 9.4 48.9
07:55 1018 30.06 847 25.01 17.3 63.2 60 9.7 49.4
08:00 1018 30.06 847 25.01 17.9 64.2 60 10.1 50.2
08:05 1018 30.06 847 25.01 17.9 64.2 61 10.3 50.5
08:10 1018 30.06 847 25.01 17.9 64.3 61 10.4 50.6
08:15 1018 30.06 847 25.01 17.7 63.9 62 10.3 50.6
08:20 1018 30.06 847 25.01 18.2 64.7 58 9.9 49.8
08:25 1018 30.06 847 25.01 18.7 65.6 59 10.5 50.9
08:30 1018 30.06 847 25.01 18.1 64.5 58 9.7 49.5
08:35 1018 30.06 847 25.01 18.8 65.9 54 9.5 49.1
08:40 1018 30.06 847 25.01 18.5 65.4 56 9.7 49.5
08:45 1018 30.06 847 25.01 18.6 65.5 55 9.6 49.3
08:50 1018 30.06 847 25.01 18.5 65.3 57 9.8 49.7
08:55 1018 30.06 847 25.01 18.2 64.8 54 8.8 47.8
09:00 1018 30.06 847 25.01 19.2 66.5 53 9.4 49
09:05 1018 30.06 847 25.01 18.8 65.8 54 9.3 48.8
09:10 1018 30.06 847 25.01 18.6 65.4 52 8.6 47.5
09:15 1018 30.06 847 25.01 18.9 66.1 50 8.3 47
09:20 1018 30.06 847 25.01 20 68.1 49 9.1 48.3
09:25 1018 30.06 847 25.01 19.3 66.7 49 8.5 47.3
09:30 1018 30.06 847 25.01 19.5 67.1 50 8.9 48.1
09:35 1018 30.06 847 25.01 19.5 67 49 8.6 47.5
09:40 1018 30.06 847 25.01 20.4 68.7 44 7.8 46.1
09:45 1018 30.06 847 25.01 21 69.7 47 9.4 49
09:50 1018 30.06 847 25.01 21.5 70.6 46 9.5 49.2
09:55 1018 30.06 847 25.01 20.9 69.5 48 9.6 49.2
10:00 1018 30.06 847 25.01 20 68 50 9.3 48.8
10:05 1018 30.06 847 25.01 20.5 68.8 48 9.2 48.6
10:10 1018 30.06 847 25.01 20.5 68.9 48 9.1 48.5
10:15 1018 30.06 847 25.01 21.6 70.9 44 9.1 48.4
10:20 1018 30.06 847 25.01 21.3 70.4 46 9.4 48.9
10:25 1018 30.06 847 25.01 21.1 70 43 8.3 47
10:30 1018 30.06 847 25.01 21.7 71.1 43 8.7 47.6
10:35 1018 30.06 847 25.01 22.4 72.3 41 8.6 47.6
10:40 1018 30.06 847 25.01 22.1 71.8 39 7.8 46
10:45 1018 30.06 847 25.01 22.8 73 38 8 46.4
10:50 1018 30.06 847 25.01 23.3 74 38 8.4 47.2
10:55 1018 30.06 847 25.01 23.1 73.7 37 7.9 46.3
11:00 1018 30.06 847 25.01 22.4 72.2 37 7.1 44.8
11:05 1018 30.06 847 25.01 22.3 72.1 36 6.7 44.1
11:10 1018 30.06 847 25.01 22.5 72.5 35 6.4 43.5
11:15 1018 30.06 847 25.01 21.7 71.1 33 4.8 40.6
11:20 1017 30.03 847 25.01 22.3 72.2 29 3.5 38.2
11:25 1017 30.03 847 25.01 23.1 73.5 35 7 44.6
11:30 1017 30.03 847 25.01 22.9 73.2 38 8.1 46.5
11:35 1017 30.03 846 24.98 22.3 72.2 40 8.2 46.7
11:40 1017 30.03 846 24.98 22.9 73.3 37 7.6 45.7
11:45 1017 30.03 846 24.98 23.1 73.6 39 8.4 47.2
11:50 1017 30.03 846 24.98 22.3 72.1 40 8 46.5
11:55 1017 30.03 846 24.98 23.2 73.7 36 7.5 45.5
12:00 1017 30.03 846 24.98 24.2 75.6 35 8.2 46.7
12:05 1017 30.03 846 24.98 24.1 75.3 37 8.5 47.4
12:10 1017 30.03 846 24.98 24.7 76.4 34 7.9 46.3
12:15 1017 30.03 846 24.98 23.9 75 35 7.9 46.2
12:20 1017 30.03 846 24.98 23.6 74.4 37 8.4 47.1
12:25 1017 30.03 846 24.98 23.3 74 37 8 46.4
12:30 1017 30.03 846 24.98 23.3 74 36 7.5 45.4
12:35 1017 30.03 846 24.98 24.7 76.5 32 7.2 45
12:40 1017 30.03 846 24.98 25.4 77.8 33 8.2 46.8
12:45 1017 30.03 846 24.98 24.8 76.6 33 7.7 45.9
12:50 1017 30.03 846 24.98 25.1 77.1 32 7.6 45.7
12:55 1017 30.03 846 24.98 24.9 76.8 32 7.4 45.3
13:00 1017 30.03 846 24.98 25 77 33 7.9 46.2
13:05 1017 30.03 846 24.98 24.2 75.6 33 7 44.7
13:10 1017 30.03 846 24.98 25.9 78.6 29 6.6 43.9
13:15 1017 30.03 846 24.98 25.9 78.7 28 6.5 43.6
13:20 1016 30 846 24.98 25.9 78.7 29 6.6 43.9
13:25 1016 30 846 24.98 26.1 79.1 29 7.1 44.8
13:30 1016 30 845 24.95 26 78.7 31 7.6 45.8
13:35 1016 30 845 24.95 26.2 79.1 28 6.3 43.4
13:40 1016 30 845 24.95 26.4 79.5 29 7.4 45.3
13:45 1016 30 845 24.95 25.4 77.8 30 6.7 44.1
13:50 1016 30 845 24.95 25.7 78.3 32 8 46.3
13:55 1016 30 845 24.95 25.6 78.2 31 7.3 45.2
14:00 1016 30 845 24.95 25.5 77.8 32 7.9 46.2
14:05 1016 30 845 24.95 25.1 77.2 31 6.9 44.5
14:10 1016 30 845 24.95 25.6 78.1 28 6.3 43.3
14:15 1016 30 845 24.95 26.5 79.6 26 5.8 42.5
14:20 1015 29.97 845 24.95 27.8 82.1 24 5.8 42.5
14:25 1015 29.97 845 24.95 26.9 80.4 27 6.7 44.1
14:30 1015 29.97 844 24.92 26.1 78.9 27 5.7 42.3
14:35 1015 29.97 844 24.92 26 78.7 27 5.6 42.1
14:40 1015 29.97 844 24.92 26.8 80.3 25 5.3 41.5
14:45 1015 29.97 844 24.92 26.9 80.4 26 6 42.9
14:50 1015 29.97 844 24.92 26.7 80 27 6.6 43.9
14:55 1015 29.97 844 24.92 26.5 79.8 28 6.6 43.8
15:00 1015 29.97 844 24.92 26.6 79.9 27 6.2 43.2
15:05 1015 29.97 844 24.92 26.7 80 26 5.6 42.1
15:10 1015 29.97 844 24.92 26.4 79.5 25 5.1 41.1
15:15 1015 29.97 844 24.92 26.7 80.1 23 4.3 39.8
15:20 1015 29.97 844 24.92 27.2 81 25 5.6 42.1
15:25 1015 29.97 844 24.92 26.9 80.3 24 4.7 40.5
15:30 1015 29.97 844 24.92 27.1 80.8 24 4.9 40.7
15:35 1015 29.97 844 24.92 27 80.5 26 6.2 43.2
15:40 1015 29.97 844 24.92 26.5 79.6 25 5.2 41.4
15:45 1015 29.97 844 24.92 26.4 79.5 24 4.6 40.3
15:50 1015 29.97 844 24.92 26.8 80.3 24 4.9 40.9
15:55 1015 29.97 844 24.92 27.4 81.4 22 4.4 39.9
16:00 1014 29.94 844 24.92 27 80.7 24 4.8 40.6
16:05 1014 29.94 844 24.92 26.9 80.4 23 4.2 39.5
16:10 1014 29.94 844 24.92 26.2 79.1 24 4.2 39.6
16:15 1014 29.94 844 24.92 26 78.7 24 3.9 39.1
16:20 1014 29.94 844 24.92 26.1 79.1 25 5.1 41.1
16:25 1014 29.94 844 24.92 26.4 79.6 25 5.2 41.3
16:30 1015 29.97 844 24.92 26.5 79.7 26 5.8 42.4
16:35 1015 29.97 844 24.92 26.2 79.1 39 11.5 52.6
16:40 1014 29.94 844 24.92 23.8 74.8 35 7.5 45.6
16:45 1014 29.94 844 24.92 23.3 74 31 5.7 42.2
16:50 1014 29.94 844 24.92 24.3 75.7 28 4.6 40.3
16:55 1015 29.97 844 24.92 24.8 76.6 31 6.8 44.2
17:00 1015 29.97 844 24.92 23.6 74.4 37 8.4 47.1
17:05 1015 29.97 844 24.92 22.9 73.3 41 9.2 48.6
17:10 1015 29.97 844 24.92 22.2 72 43 9.4 48.9
17:15 1015 29.97 844 24.92 22.2 72 41 8.7 47.7
17:20 1015 29.97 844 24.92 22.2 72 42 8.9 48
17:25 1015 29.97 844 24.92 22.2 71.9 41 8.5 47.3
17:30 1015 29.97 844 24.92 22 71.6 39 7.6 45.7
17:35 1014 29.94 843 24.89 22.1 71.9 42 8.9 48.1
17:40 1014 29.94 843 24.89 21.8 71.2 41 8.2 46.8
17:45 1014 29.94 843 24.89 21.9 71.5 36 6.3 43.4
17:50 1014 29.94 843 24.89 22.3 72.1 38 7.3 45.2
17:55 1014 29.94 843 24.89 22.5 72.5 34 6 42.7
18:00 1014 29.94 844 24.92 21.9 71.5 49 11 51.8
18:05 1015 29.97 844 24.92 19.7 67.4 52 9.8 49.6
18:10 1015 29.97 844 24.92 19.5 67.1 51 9.3 48.7
18:15 1015 29.97 844 24.92 19.5 67 52 9.5 49.1
18:20 1015 29.97 844 24.92 19.3 66.8 53 9.5 49.2
18:25 1015 29.97 844 24.92 19.1 66.3 52 9 48.2
18:30 1015 29.97 844 24.92 19.1 66.4 52 9.1 48.5
18:35 1015 29.97 844 24.92 19.2 66.5 51 8.8 47.9
18:40 1015 29.97 844 24.92 19.2 66.5 51 8.9 48.1
18:45 1015 29.97 844 24.92 19.1 66.4 51 9 48.1
18:50 1015 29.97 844 24.92 19 66.2 52 9 48.3
18:55 1015 29.97 844 24.92 18.9 65.9 53 9.1 48.3
19:00 1015 29.97 844 24.92 18.9 66.1 51 8.8 47.8
19:05 1015 29.97 844 24.92 18.9 66.1 53 9.3 48.7
19:10 1015 29.97 844 24.92 18.7 65.7 52 8.9 47.9
19:15 1015 29.97 844 24.92 18.8 65.8 52 8.8 47.8
19:20 1015 29.97 844 24.92 18.7 65.7 52 8.8 47.8
19:25 1015 29.97 844 24.92 18.6 65.5 54 9.2 48.5
19:30 1015 29.97 844 24.92 18.5 65.3 54 9.1 48.4
19:35 1015 29.97 844 24.92 18.6 65.5 51 8.5 47.3
19:40 1015 29.97 844 24.92 19 66.2 49 8 46.5
19:45 1015 29.97 844 24.92 19.2 66.6 47 7.9 46.2
19:50 1015 29.97 844 24.92 19.4 66.8 47 7.9 46.3
19:55 1015 29.97 844 24.92 19.3 66.8 46 7.6 45.7
20:00 1015 29.97 844 24.92 19.4 67 46 7.7 45.8
20:05 1015 29.97 844 24.92 19.3 66.8 46 7.6 45.6
20:10 1015 29.97 844 24.92 19.4 66.8 45 7.4 45.3
20:15 1015 29.97 844 24.92 19.4 66.8 46 7.5 45.5
20:20 1015 29.97 844 24.92 19.1 66.4 48 7.9 46.2
20:25 1015 29.97 844 24.92 18.8 65.9 49 7.9 46.2
20:30 1015 29.97 844 24.92 18.7 65.7 47 7.3 45.1
20:35 1015 29.97 845 24.95 18.8 65.8 49 7.9 46.2
20:40 1016 30 845 24.95 18.6 65.4 52 8.6 47.4
20:45 1016 30 845 24.95 18.1 64.6 55 9.1 48.4
20:50 1016 30 845 24.95 17.9 64.2 54 8.5 47.4
20:55 1016 30 845 24.95 17.8 64 55 8.6 47.5
21:00 1016 30 845 24.95 17.6 63.7 55 8.5 47.3
21:05 1016 30 845 24.95 17.7 63.8 54 8.4 47.1
21:10 1016 30 845 24.95 17.6 63.7 56 8.7 47.7
21:15 1016 30 845 24.95 17.4 63.3 57 8.9 48
21:20 1016 30 845 24.95 17.3 63.1 58 9.1 48.4
21:25 1016 30 845 24.95 17.2 63 60 9.5 49.1
21:30 1016 30 845 24.95 17.2 62.9 61 9.7 49.5
21:35 1016 30 845 24.95 17 62.6 62 9.8 49.7
21:40 1016 30 846 24.98 16.9 62.3 64 10.1 50.2
21:45 1016 30 846 24.98 16.8 62.2 65 10.3 50.5
21:50 1017 30.03 846 24.98 16.6 61.9 66 10.4 50.7
21:55 1017 30.03 846 24.98 16.6 61.8 66 10.4 50.7
22:00 1016 30 846 24.98 16.6 61.8 67 10.5 50.9
22:05 1016 30 846 24.98 16.5 61.6 68 10.5 51
22:10 1016 30 846 24.98 16.4 61.6 67 10.4 50.8
22:15 1017 30.03 846 24.98 16.5 61.6 67 10.4 50.8
22:20 1017 30.03 846 24.98 16.5 61.7 67 10.4 50.8
22:25 1017 30.03 846 24.98 16.6 61.8 67 10.5 50.9
22:30 1017 30.03 846 24.98 16.5 61.7 68 10.6 51
22:35 1017 30.03 846 24.98 16.4 61.6 68 10.5 50.9
22:40 1017 30.03 846 24.98 16.5 61.6 68 10.5 51
22:45 1017 30.03 846 24.98 16.5 61.7 68 10.7 51.3
22:50 1017 30.03 846 24.98 16.4 61.5 69 10.8 51.4
22:55 1017 30.03 846 24.98 16.3 61.4 69 10.7 51.3
23:00 1017 30.03 846 24.98 16.3 61.3 70 10.8 51.4
23:05 1017 30.03 846 24.98 16.3 61.3 69 10.6 51.1
23:10 1017 30.03 846 24.98 16.3 61.3 69 10.6 51
23:15 1017 30.03 846 24.98 16.3 61.3 69 10.7 51.3
23:20 1017 30.03 846 24.98 16.3 61.3 70 10.8 51.4
23:25 1017 30.03 846 24.98 16.2 61.1 70 10.8 51.4
23:30 1017 30.03 846 24.98 16.1 61 70 10.6 51.1
23:35 1017 30.03 846 24.98 16.2 61.1 69 10.6 51.2
23:40 1017 30.03 846 24.98 16.2 61.2 69 10.6 51
23:45 1017 30.03 846 24.98 16.2 61.2 69 10.5 50.9
23:50 1017 30.03 846 24.98 16.2 61.2 69 10.6 51
23:55 1017 30.03 846 24.98 16.2 61.1 69 10.6 51.1
24:00 1017 30.03 846 24.98 16.1 60.9 70 10.6 51.1